createdAt,value
2023-04-13T00:00:38.644Z,990.15
2023-04-13T00:01:38.656Z,990.08
2023-04-13T00:02:38.706Z,990.09
2023-04-13T00:03:38.699Z,990.12
2023-04-13T00:04:38.601Z,990.08
2023-04-13T00:05:38.680Z,990.06
2023-04-13T00:06:38.581Z,990.09
2023-04-13T00:07:38.600Z,990.05
2023-04-13T00:08:38.680Z,990.10
2023-04-13T00:09:38.565Z,990.12
2023-04-13T00:10:38.565Z,990.01
2023-04-13T00:11:38.567Z,990.05
2023-04-13T00:12:38.516Z,990.14
2023-04-13T00:13:38.499Z,990.06
2023-04-13T00:14:38.513Z,990.07
2023-04-13T00:15:38.483Z,989.99
2023-04-13T00:16:38.516Z,989.99
2023-04-13T00:17:38.466Z,990.04
2023-04-13T00:18:38.443Z,990.02
2023-04-13T00:19:38.430Z,990.02
2023-04-13T00:20:38.439Z,990.02
2023-04-13T00:21:38.418Z,990.01
2023-04-13T00:22:38.406Z,990.02
2023-04-13T00:23:38.391Z,989.91
2023-04-13T00:24:38.398Z,989.98
2023-04-13T00:25:38.363Z,989.96
2023-04-13T00:26:38.373Z,989.99
2023-04-13T00:27:38.356Z,989.95
2023-04-13T00:28:38.336Z,989.89
2023-04-13T00:29:38.327Z,989.94
2023-04-13T00:30:38.411Z,989.89
2023-04-13T00:31:38.302Z,989.91
2023-04-13T00:32:38.317Z,989.91
2023-04-13T00:33:38.282Z,989.88
2023-04-13T00:34:38.270Z,989.98
2023-04-13T00:35:38.254Z,989.93
2023-04-13T00:36:38.246Z,989.91
2023-04-13T00:37:45.173Z,989.87
2023-04-13T00:38:38.352Z,989.86
2023-04-13T00:39:38.210Z,989.87
2023-04-13T00:40:38.237Z,989.85
2023-04-13T00:41:38.189Z,989.88
2023-04-13T00:42:38.181Z,989.84
2023-04-13T00:43:38.191Z,989.81
2023-04-13T00:44:38.163Z,989.78
2023-04-13T00:45:38.145Z,989.72
2023-04-13T00:46:38.206Z,989.71
2023-04-13T00:47:38.180Z,989.77
2023-04-13T00:48:38.128Z,989.72
2023-04-13T00:49:38.123Z,989.75
2023-04-13T00:50:38.096Z,989.64
2023-04-13T00:51:38.088Z,989.71
2023-04-13T00:52:38.090Z,989.68
2023-04-13T00:53:38.058Z,989.67
2023-04-13T00:54:38.048Z,989.68
2023-04-13T00:55:38.057Z,989.68
2023-04-13T00:56:38.062Z,989.71
2023-04-13T00:57:38.012Z,989.61
2023-04-13T00:58:38.012Z,989.62
2023-04-13T00:59:37.989Z,989.56
2023-04-13T01:00:37.997Z,989.63
2023-04-13T01:01:38.002Z,989.55
2023-04-13T01:02:38.034Z,989.51
2023-04-13T01:03:38.010Z,989.59
2023-04-13T01:04:38.013Z,989.56
2023-04-13T01:05:37.926Z,989.57
2023-04-13T01:06:37.931Z,989.58
2023-04-13T01:07:37.909Z,989.57
2023-04-13T01:08:37.908Z,989.54
2023-04-13T01:09:37.881Z,989.56
2023-04-13T01:10:37.879Z,989.53
2023-04-13T01:11:37.863Z,989.55
2023-04-13T01:12:37.877Z,989.52
2023-04-13T01:13:37.844Z,989.52
2023-04-13T01:14:37.829Z,989.53
2023-04-13T01:15:37.961Z,989.47
2023-04-13T01:16:37.806Z,989.44
2023-04-13T01:17:37.846Z,989.47
2023-04-13T01:18:37.782Z,989.49
2023-04-13T01:19:37.787Z,989.49
2023-04-13T01:20:37.762Z,989.41
2023-04-13T01:21:37.758Z,989.50
2023-04-13T01:22:37.740Z,989.41
2023-04-13T01:23:37.728Z,989.43
2023-04-13T01:24:37.719Z,989.42
2023-04-13T01:25:37.715Z,989.40
2023-04-13T01:26:37.714Z,989.33
2023-04-13T01:27:37.682Z,989.40
2023-04-13T01:28:37.699Z,989.35
2023-04-13T01:29:37.666Z,989.36
2023-04-13T01:30:37.648Z,989.37
2023-04-13T01:31:37.706Z,989.33
2023-04-13T01:32:37.654Z,989.29
2023-04-13T01:33:37.616Z,989.28
2023-04-13T01:34:37.613Z,989.27
2023-04-13T01:35:37.593Z,989.21
2023-04-13T01:36:37.626Z,989.26
2023-04-13T01:37:37.580Z,989.21
2023-04-13T01:38:37.575Z,989.22
2023-04-13T01:39:37.550Z,989.30
2023-04-13T01:40:37.545Z,989.26
2023-04-13T01:41:37.525Z,989.22
2023-04-13T01:42:37.532Z,989.18
2023-04-13T01:43:37.504Z,989.22
2023-04-13T01:44:37.522Z,989.24
2023-04-13T01:45:37.504Z,989.22
2023-04-13T01:46:37.518Z,989.25
2023-04-13T01:47:37.574Z,989.24
2023-04-13T01:48:37.462Z,989.11
2023-04-13T01:49:37.443Z,989.19
2023-04-13T01:50:37.428Z,989.18
2023-04-13T01:51:37.427Z,989.16
2023-04-13T01:52:37.404Z,989.21
2023-04-13T01:53:37.401Z,989.15
2023-04-13T01:54:37.382Z,989.18
2023-04-13T01:55:37.385Z,989.05
2023-04-13T01:56:37.361Z,989.06
2023-04-13T01:57:37.387Z,989.09
2023-04-13T01:58:37.340Z,989.02
2023-04-13T01:59:37.330Z,989.03
2023-04-13T02:00:37.457Z,989.02
2023-04-13T02:01:37.312Z,989.04
2023-04-13T02:02:37.441Z,988.99
2023-04-13T02:03:37.488Z,988.98
2023-04-13T02:04:37.273Z,988.90
2023-04-13T02:05:37.298Z,988.98
2023-04-13T02:06:37.279Z,989.03
2023-04-13T02:07:37.258Z,988.98
2023-04-13T02:08:37.242Z,988.96
2023-04-13T02:09:37.228Z,988.88
2023-04-13T02:10:37.210Z,988.87
2023-04-13T02:11:37.197Z,988.88
2023-04-13T02:12:37.191Z,988.86
2023-04-13T02:13:37.201Z,988.87
2023-04-13T02:14:37.175Z,988.85
2023-04-13T02:15:37.154Z,988.87
2023-04-13T02:16:37.294Z,988.82
2023-04-13T02:17:37.166Z,988.84
2023-04-13T02:18:37.130Z,988.87
2023-04-13T02:19:37.131Z,988.84
2023-04-13T02:20:37.108Z,988.80
2023-04-13T02:21:37.135Z,988.82
2023-04-13T02:22:37.077Z,988.85
2023-04-13T02:23:37.062Z,988.80
2023-04-13T02:24:37.098Z,988.79
2023-04-13T02:25:37.047Z,988.66
2023-04-13T02:26:37.033Z,988.82
2023-04-13T02:27:37.035Z,988.73
2023-04-13T02:28:37.670Z,988.72
2023-04-13T02:29:37.012Z,988.69
2023-04-13T02:30:36.990Z,988.80
2023-04-13T02:31:37.032Z,988.60
2023-04-13T02:32:36.999Z,988.77
2023-04-13T02:33:36.950Z,988.76
2023-04-13T02:34:36.962Z,988.79
2023-04-13T02:35:36.930Z,988.71
2023-04-13T02:36:36.953Z,988.67
2023-04-13T02:37:36.935Z,988.64
2023-04-13T02:38:36.903Z,988.64
2023-04-13T02:39:36.885Z,988.82
2023-04-13T02:40:36.885Z,988.73
2023-04-13T02:41:36.865Z,988.64
2023-04-13T02:42:36.879Z,988.63
2023-04-13T02:43:36.867Z,988.74
2023-04-13T02:44:36.835Z,988.65
2023-04-13T02:45:36.876Z,988.76
2023-04-13T02:46:36.811Z,988.70
2023-04-13T02:47:36.838Z,988.64
2023-04-13T02:48:36.817Z,988.76
2023-04-13T02:49:36.784Z,988.81
2023-04-13T02:50:36.769Z,988.68
2023-04-13T02:51:36.751Z,988.71
2023-04-13T02:52:36.756Z,988.83
2023-04-13T02:53:36.730Z,988.80
2023-04-13T02:54:36.760Z,988.80
2023-04-13T02:55:36.718Z,988.82
2023-04-13T02:56:36.700Z,988.78
2023-04-13T02:57:36.684Z,988.88
2023-04-13T02:58:36.676Z,988.85
2023-04-13T02:59:36.683Z,988.83
2023-04-13T03:00:36.668Z,988.72
2023-04-13T03:01:36.667Z,988.76
2023-04-13T03:02:36.739Z,988.91
2023-04-13T03:03:36.634Z,988.81
2023-04-13T03:04:36.673Z,988.85
2023-04-13T03:05:36.621Z,988.87
2023-04-13T03:06:36.609Z,988.92
2023-04-13T03:07:36.597Z,988.89
2023-04-13T03:08:36.572Z,988.86
2023-04-13T03:09:36.553Z,988.89
2023-04-13T03:10:36.545Z,988.78
2023-04-13T03:11:36.567Z,988.91
2023-04-13T03:12:36.529Z,988.89
2023-04-13T03:13:36.509Z,988.81
2023-04-13T03:14:36.504Z,988.80
2023-04-13T03:15:36.488Z,988.79
2023-04-13T03:16:36.512Z,988.91
2023-04-13T03:17:36.492Z,988.82
2023-04-13T03:18:36.480Z,988.90
2023-04-13T03:19:36.445Z,988.79
2023-04-13T03:20:36.484Z,988.87
2023-04-13T03:21:36.429Z,988.84
2023-04-13T03:22:36.427Z,988.76
2023-04-13T03:23:36.449Z,988.91
2023-04-13T03:24:36.415Z,988.82
2023-04-13T03:25:36.382Z,988.90
2023-04-13T03:26:36.382Z,988.90
2023-04-13T03:27:36.363Z,988.89
2023-04-13T03:28:36.354Z,988.72
2023-04-13T03:29:36.346Z,988.84
2023-04-13T03:30:36.328Z,988.81
2023-04-13T03:31:36.481Z,988.88
2023-04-13T03:32:36.360Z,988.90
2023-04-13T03:33:36.297Z,988.80
2023-04-13T03:34:36.285Z,988.95
2023-04-13T03:35:36.319Z,988.86
2023-04-13T03:36:36.284Z,988.97
2023-04-13T03:37:36.251Z,988.96
2023-04-13T03:38:36.240Z,988.88
2023-04-13T03:39:36.235Z,988.95
2023-04-13T03:40:36.223Z,988.95
2023-04-13T03:41:36.229Z,989.05
2023-04-13T03:42:36.192Z,989.02
2023-04-13T03:43:36.188Z,989.02
2023-04-13T03:44:36.174Z,989.05
2023-04-13T03:45:36.172Z,989.07
2023-04-13T03:46:36.214Z,989.03
2023-04-13T03:47:36.167Z,989.04
2023-04-13T03:48:36.130Z,989.03
2023-04-13T03:49:36.121Z,989.14
2023-04-13T03:50:36.135Z,989.15
2023-04-13T03:51:36.100Z,989.10
2023-04-13T03:52:36.131Z,989.16
2023-04-13T03:53:36.105Z,989.15
2023-04-13T03:54:36.128Z,989.09
2023-04-13T03:55:36.059Z,989.09
2023-04-13T03:56:36.054Z,989.08
2023-04-13T03:57:36.060Z,989.14
2023-04-13T03:58:36.036Z,989.07
2023-04-13T03:59:36.020Z,989.09
2023-04-13T04:00:35.997Z,989.12
2023-04-13T04:01:35.994Z,989.07
2023-04-13T04:02:36.199Z,989.06
2023-04-13T04:03:36.159Z,989.04
2023-04-13T04:04:36.034Z,989.12
2023-04-13T04:05:35.969Z,989.15
2023-04-13T04:06:35.926Z,989.12
2023-04-13T04:07:35.961Z,989.16
2023-04-13T04:08:35.930Z,989.21
2023-04-13T04:09:35.923Z,989.17
2023-04-13T04:10:35.901Z,989.20
2023-04-13T04:11:35.885Z,989.17
2023-04-13T04:12:35.888Z,989.12
2023-04-13T04:13:35.866Z,989.21
2023-04-13T04:14:35.843Z,989.21
2023-04-13T04:15:35.843Z,989.28
2023-04-13T04:16:35.898Z,989.27
2023-04-13T04:17:37.324Z,989.21
2023-04-13T04:18:35.816Z,989.37
2023-04-13T04:19:35.787Z,989.30
2023-04-13T04:20:35.775Z,989.39
2023-04-13T04:21:35.785Z,989.37
2023-04-13T04:22:35.754Z,989.35
2023-04-13T04:23:35.745Z,989.36
2023-04-13T04:24:35.767Z,989.30
2023-04-13T04:25:35.722Z,989.39
2023-04-13T04:26:35.733Z,989.43
2023-04-13T04:27:35.728Z,989.47
2023-04-13T04:28:35.683Z,989.51
2023-04-13T04:29:35.703Z,989.51
2023-04-13T04:30:35.675Z,989.48
2023-04-13T04:31:37.375Z,989.51
2023-04-13T04:32:35.690Z,989.59
2023-04-13T04:33:35.682Z,989.62
2023-04-13T04:34:35.638Z,989.64
2023-04-13T04:35:35.613Z,989.71
2023-04-13T04:36:35.602Z,989.71
2023-04-13T04:37:35.599Z,989.70
2023-04-13T04:38:35.596Z,989.78
2023-04-13T04:39:35.581Z,989.72
2023-04-13T04:40:35.579Z,989.80
2023-04-13T04:41:35.550Z,989.70
2023-04-13T04:42:35.562Z,989.75
2023-04-13T04:43:35.527Z,989.81
2023-04-13T04:44:35.563Z,989.78
2023-04-13T04:45:35.526Z,989.84
2023-04-13T04:46:35.489Z,989.83
2023-04-13T04:47:35.502Z,989.83
2023-04-13T04:48:35.473Z,989.88
2023-04-13T04:49:35.461Z,989.91
2023-04-13T04:50:35.464Z,989.96
2023-04-13T04:51:35.443Z,989.96
2023-04-13T04:52:35.433Z,989.98
2023-04-13T04:53:35.415Z,989.99
2023-04-13T04:54:35.404Z,989.98
2023-04-13T04:55:35.405Z,990.03
2023-04-13T04:56:35.411Z,990.06
2023-04-13T04:57:35.372Z,990.03
2023-04-13T04:58:35.356Z,990.06
2023-04-13T04:59:35.351Z,990.14
2023-04-13T05:00:35.358Z,990.11
2023-04-13T05:01:35.358Z,990.07
2023-04-13T05:02:35.557Z,990.11
2023-04-13T05:03:35.314Z,990.12
2023-04-13T05:04:35.333Z,990.17
2023-04-13T05:11:22.398Z,990.27
2023-04-13T05:12:22.362Z,990.21
2023-04-13T05:13:22.331Z,990.27
2023-04-13T05:14:22.340Z,990.29
2023-04-13T05:15:22.311Z,990.36
2023-04-13T05:16:22.335Z,990.29
2023-04-13T05:17:22.328Z,990.43
2023-04-13T05:18:22.290Z,990.35
2023-04-13T05:19:22.258Z,990.38
2023-04-13T05:20:22.250Z,990.46
2023-04-13T05:21:22.246Z,990.48
2023-04-13T05:22:22.238Z,990.47
2023-04-13T05:23:22.243Z,990.50
2023-04-13T05:24:22.230Z,990.48
2023-04-13T05:25:22.210Z,990.54
2023-04-13T05:26:22.189Z,990.57
2023-04-13T05:27:22.171Z,990.63
2023-04-13T05:28:22.179Z,990.63
2023-04-13T05:29:22.151Z,990.68
2023-04-13T05:30:22.137Z,990.73
2023-04-13T05:31:22.157Z,990.75
2023-04-13T05:32:22.132Z,990.78
2023-04-13T05:33:22.115Z,990.85
2023-04-13T05:34:22.103Z,990.84
2023-04-13T05:35:22.086Z,990.84
2023-04-13T05:36:22.076Z,990.89
2023-04-13T05:37:22.067Z,990.93
2023-04-13T05:38:22.072Z,990.95
2023-04-13T05:39:22.056Z,990.87
2023-04-13T05:40:22.029Z,990.97
2023-04-13T05:41:22.018Z,990.94
2023-04-13T05:42:22.004Z,990.98
2023-04-13T05:43:23.833Z,990.98
2023-04-13T05:44:22.012Z,990.96
2023-04-13T05:45:21.981Z,991.01
2023-04-13T05:46:22.034Z,990.95
2023-04-13T05:47:22.011Z,990.99
2023-04-13T05:48:21.949Z,991.08
2023-04-13T05:49:21.936Z,991.02
2023-04-13T05:50:21.919Z,991.14
2023-04-13T05:51:21.907Z,991.19
2023-04-13T05:52:21.945Z,991.18
2023-04-13T05:53:21.897Z,991.16
2023-04-13T05:54:21.864Z,991.23
2023-04-13T05:55:21.868Z,991.20
2023-04-13T05:56:21.841Z,991.24
2023-04-13T05:57:21.868Z,991.21
2023-04-13T05:58:21.832Z,991.20
2023-04-13T05:59:21.823Z,991.23
2023-04-13T06:00:21.815Z,991.24
2023-04-13T06:01:21.794Z,991.21
2023-04-13T06:02:21.904Z,991.24
2023-04-13T06:03:22.118Z,991.30
2023-04-13T06:04:21.901Z,991.34
2023-04-13T06:05:21.829Z,991.33
2023-04-13T06:06:21.733Z,991.36
2023-04-13T06:07:21.730Z,991.41
2023-04-13T06:08:21.724Z,991.36
2023-04-13T06:09:21.693Z,991.44
2023-04-13T06:10:21.732Z,991.41
2023-04-13T06:11:21.677Z,991.43
2023-04-13T06:12:21.674Z,991.56
2023-04-13T06:13:21.661Z,991.52
2023-04-13T06:14:21.642Z,991.62
2023-04-13T06:15:21.636Z,991.52
2023-04-13T06:16:21.706Z,991.50
2023-04-13T06:17:21.669Z,991.52
2023-04-13T06:18:21.611Z,991.51
2023-04-13T06:19:21.581Z,991.52
2023-04-13T06:20:21.641Z,991.63
2023-04-13T06:21:21.637Z,991.66
2023-04-13T06:22:21.541Z,991.61
2023-04-13T06:23:21.533Z,991.55
2023-04-13T06:24:21.539Z,991.51
2023-04-13T06:25:21.514Z,991.69
2023-04-13T06:26:21.512Z,991.71
2023-04-13T06:27:21.501Z,991.75
2023-04-13T06:28:21.474Z,991.62
2023-04-13T06:29:21.506Z,991.55
2023-04-13T06:30:21.450Z,991.65
2023-04-13T06:31:21.525Z,991.72
2023-04-13T06:32:21.591Z,991.70
2023-04-13T06:33:21.433Z,991.86
2023-04-13T06:34:21.407Z,991.78
2023-04-13T06:35:21.427Z,991.75
2023-04-13T06:36:21.399Z,991.74
2023-04-13T06:37:21.376Z,991.70
2023-04-13T06:38:21.396Z,991.65
2023-04-13T06:39:21.372Z,991.72
2023-04-13T06:40:21.352Z,991.74
2023-04-13T06:41:21.362Z,991.70
2023-04-13T06:42:21.320Z,991.75
2023-04-13T06:43:28.997Z,991.66
2023-04-13T06:44:22.295Z,991.65
2023-04-13T06:45:21.286Z,991.81
2023-04-13T06:46:21.358Z,991.86
2023-04-13T06:47:21.303Z,991.86
2023-04-13T06:48:21.270Z,991.86
2023-04-13T06:49:21.260Z,991.82
2023-04-13T06:50:21.228Z,992.05
2023-04-13T06:51:21.228Z,991.87
2023-04-13T06:52:21.229Z,991.88
2023-04-13T06:53:21.199Z,991.94
2023-04-13T06:54:21.190Z,991.95
2023-04-13T06:55:21.180Z,991.93
2023-04-13T06:56:21.158Z,991.89
2023-04-13T06:57:21.193Z,991.91
2023-04-13T06:58:21.145Z,991.91
2023-04-13T06:59:21.135Z,992.01
2023-04-13T07:00:29.550Z,992.17
2023-04-13T07:01:22.196Z,992.08
2023-04-13T07:02:21.228Z,992.05
2023-04-13T07:03:21.322Z,992.19
2023-04-13T07:04:21.201Z,992.18
2023-04-13T07:05:21.063Z,992.05
2023-04-13T07:06:21.046Z,991.81
2023-04-13T07:07:21.060Z,992.23
2023-04-13T07:08:21.028Z,992.04
2023-04-13T07:09:21.054Z,992.24
2023-04-13T07:10:21.007Z,992.15
2023-04-13T07:11:20.999Z,992.19
2023-04-13T07:12:20.980Z,992.05
2023-04-13T07:13:20.990Z,992.27
2023-04-13T07:14:21.011Z,992.26
2023-04-13T07:15:20.962Z,991.96
2023-04-13T07:16:20.976Z,992.28
2023-04-13T07:17:20.940Z,992.32
2023-04-13T07:18:20.937Z,992.29
2023-04-13T07:19:20.921Z,992.27
2023-04-13T07:20:20.921Z,992.15
2023-04-13T07:21:20.887Z,992.15
2023-04-13T07:22:20.873Z,992.12
2023-04-13T07:23:20.874Z,992.09
2023-04-13T07:24:20.874Z,992.08
2023-04-13T07:25:20.843Z,992.03
2023-04-13T07:26:20.839Z,992.12
2023-04-13T07:27:20.826Z,992.25
2023-04-13T07:28:20.826Z,992.21
2023-04-13T07:29:20.793Z,992.21
2023-04-13T07:30:20.777Z,992.22
2023-04-13T07:31:20.792Z,992.26
2023-04-13T07:32:21.334Z,992.19
2023-04-13T07:33:20.790Z,992.32
2023-04-13T07:34:20.736Z,992.23
2023-04-13T07:35:20.765Z,992.27
2023-04-13T07:36:20.730Z,992.20
2023-04-13T07:37:20.712Z,992.28
2023-04-13T07:38:20.717Z,992.27
2023-04-13T07:39:20.679Z,992.42
2023-04-13T07:40:20.708Z,992.38
2023-04-13T07:41:20.665Z,992.35
2023-04-13T07:42:20.640Z,992.42
2023-04-13T07:43:20.859Z,992.39
2023-04-13T07:44:20.630Z,992.54
2023-04-13T07:45:20.606Z,992.44
2023-04-13T07:46:20.622Z,992.54
2023-04-13T07:47:20.626Z,992.51
2023-04-13T07:48:20.592Z,992.46
2023-04-13T07:49:20.569Z,992.54
2023-04-13T07:50:20.560Z,992.54
2023-04-13T07:51:20.558Z,992.74
2023-04-13T07:52:20.706Z,992.61
2023-04-13T07:53:20.520Z,992.64
2023-04-13T07:54:20.538Z,992.72
2023-04-13T07:55:20.503Z,992.69
2023-04-13T07:56:20.495Z,992.81
2023-04-13T07:57:20.474Z,992.75
2023-04-13T07:58:20.472Z,992.74
2023-04-13T07:59:20.454Z,992.80
2023-04-13T08:00:20.683Z,992.84
2023-04-13T08:01:20.423Z,992.85
2023-04-13T08:02:20.542Z,992.81
2023-04-13T08:03:20.604Z,992.87
2023-04-13T08:04:20.557Z,992.99
2023-04-13T08:05:20.781Z,992.95
2023-04-13T08:06:20.370Z,992.82
2023-04-13T08:07:20.368Z,992.99
2023-04-13T08:08:20.387Z,992.95
2023-04-13T08:09:20.337Z,993.00
2023-04-13T08:10:20.322Z,993.02
2023-04-13T08:11:20.333Z,993.05
2023-04-13T08:12:20.351Z,993.07
2023-04-13T08:13:20.292Z,993.13
2023-04-13T08:14:20.303Z,993.20
2023-04-13T08:15:20.271Z,993.19
2023-04-13T08:16:20.298Z,993.12
2023-04-13T08:17:20.265Z,993.22
2023-04-13T08:18:20.277Z,993.19
2023-04-13T08:19:20.230Z,993.16
2023-04-13T08:20:20.210Z,993.24
2023-04-13T08:21:20.208Z,993.26
2023-04-13T08:22:20.197Z,993.25
2023-04-13T08:23:20.206Z,993.29
2023-04-13T08:24:20.190Z,993.34
2023-04-13T08:25:20.182Z,993.33
2023-04-13T08:26:20.149Z,993.36
2023-04-13T08:27:20.144Z,993.36
2023-04-13T08:28:20.128Z,993.38
2023-04-13T08:29:20.143Z,993.44
2023-04-13T08:30:20.099Z,993.39
2023-04-13T08:31:20.410Z,993.42
2023-04-13T08:32:20.163Z,993.44
2023-04-13T08:33:20.068Z,993.46
2023-04-13T08:34:20.069Z,993.38
2023-04-13T08:35:20.061Z,993.45
2023-04-13T08:36:20.043Z,993.44
2023-04-13T08:37:20.027Z,993.49
2023-04-13T08:38:20.020Z,993.50
2023-04-13T08:39:20.011Z,993.47
2023-04-13T08:40:20.007Z,993.46
2023-04-13T08:41:20.005Z,993.55
2023-04-13T08:42:19.966Z,993.43
2023-04-13T08:43:19.955Z,993.55
2023-04-13T08:44:19.955Z,993.52
2023-04-13T08:45:19.947Z,993.63
2023-04-13T08:46:19.981Z,993.55
2023-04-13T08:47:19.931Z,993.67
2023-04-13T08:48:19.894Z,993.62
2023-04-13T08:49:19.898Z,993.59
2023-04-13T08:50:19.882Z,993.71
2023-04-13T08:51:19.862Z,993.67
2023-04-13T08:52:19.860Z,993.73
2023-04-13T08:53:19.839Z,993.75
2023-04-13T08:54:19.823Z,993.83
2023-04-13T08:55:19.816Z,993.74
2023-04-13T08:56:20.655Z,993.89
2023-04-13T08:57:19.795Z,993.84
2023-04-13T08:58:19.780Z,993.84
2023-04-13T08:59:19.768Z,993.90
2023-04-13T09:00:19.777Z,993.89
2023-04-13T09:01:19.898Z,993.86
2023-04-13T09:02:19.852Z,993.96
2023-04-13T09:03:19.835Z,993.88
2023-04-13T09:04:20.022Z,993.92
2023-04-13T09:05:19.805Z,993.93
2023-04-13T09:06:19.704Z,993.98
2023-04-13T09:07:19.700Z,993.98
2023-04-13T09:08:19.684Z,994.00
2023-04-13T09:09:19.683Z,994.03
2023-04-13T09:10:19.646Z,993.99
2023-04-13T09:11:19.645Z,994.02
2023-04-13T09:12:19.645Z,994.04
2023-04-13T09:13:19.612Z,994.06
2023-04-13T09:14:19.605Z,994.13
2023-04-13T09:15:19.616Z,994.08
2023-04-13T09:16:19.636Z,994.15
2023-04-13T09:17:19.631Z,994.11
2023-04-13T09:18:19.556Z,994.15
2023-04-13T09:19:19.550Z,994.13
2023-04-13T09:20:19.595Z,994.16
2023-04-13T09:21:19.520Z,994.20
2023-04-13T09:22:19.556Z,994.19
2023-04-13T09:23:19.514Z,994.24
2023-04-13T09:24:19.489Z,994.21
2023-04-13T09:25:19.476Z,994.14
2023-04-13T09:26:19.468Z,994.19
2023-04-13T09:27:19.466Z,994.25
2023-04-13T09:28:19.579Z,994.25
2023-04-13T09:29:19.427Z,994.29
2023-04-13T09:30:19.437Z,994.38
2023-04-13T09:31:19.420Z,994.36
2023-04-13T09:32:19.420Z,994.36
2023-04-13T09:33:19.386Z,994.42
2023-04-13T09:34:19.399Z,994.41
2023-04-13T09:35:19.363Z,994.32
2023-04-13T09:36:19.360Z,994.43
2023-04-13T09:37:19.340Z,994.43
2023-04-13T09:38:19.353Z,994.41
2023-04-13T09:39:19.345Z,994.44
2023-04-13T09:40:19.393Z,994.40
2023-04-13T09:41:19.319Z,994.47
2023-04-13T09:42:19.289Z,994.42
2023-04-13T09:43:19.285Z,994.40
2023-04-13T09:44:19.301Z,994.45
2023-04-13T09:45:19.257Z,994.36
2023-04-13T09:46:19.269Z,994.40
2023-04-13T09:47:19.258Z,994.41
2023-04-13T09:48:19.224Z,994.46
2023-04-13T09:49:19.217Z,994.40
2023-04-13T09:50:19.297Z,994.44
2023-04-13T09:51:19.185Z,994.45
2023-04-13T09:52:19.177Z,994.53
2023-04-13T09:53:19.174Z,994.44
2023-04-13T09:54:19.153Z,994.46
2023-04-13T09:55:19.191Z,994.48
2023-04-13T09:56:19.130Z,994.51
2023-04-13T09:57:19.122Z,994.42
2023-04-13T09:58:19.108Z,994.46
2023-04-13T09:59:19.117Z,994.41
2023-04-13T10:00:19.644Z,994.46
2023-04-13T10:01:19.107Z,994.41
2023-04-13T10:02:19.175Z,994.53
2023-04-13T10:03:19.297Z,994.46
2023-04-13T10:04:19.045Z,994.50
2023-04-13T10:05:19.174Z,994.54
2023-04-13T10:06:19.019Z,994.52
2023-04-13T10:07:19.007Z,994.58
2023-04-13T10:08:24.396Z,994.55
2023-04-13T10:09:20.007Z,994.59
2023-04-13T10:10:18.976Z,994.57
2023-04-13T10:11:18.989Z,994.57
2023-04-13T10:12:18.951Z,994.59
2023-04-13T10:13:22.291Z,994.54
2023-04-13T10:14:19.958Z,994.59
2023-04-13T10:15:18.934Z,994.62
2023-04-13T10:16:18.963Z,994.51
2023-04-13T10:17:18.941Z,994.62
2023-04-13T10:18:18.939Z,994.64
2023-04-13T10:19:18.885Z,994.62
2023-04-13T10:20:18.859Z,994.56
2023-04-13T10:21:18.856Z,994.61
2023-04-13T10:22:18.838Z,994.54
2023-04-13T10:23:18.834Z,994.54
2023-04-13T10:24:18.821Z,994.57
2023-04-13T10:25:31.909Z,994.58
2023-04-13T10:26:19.799Z,994.53
2023-04-13T10:27:18.796Z,994.63
2023-04-13T10:28:18.799Z,994.69
2023-04-13T10:29:21.370Z,994.70
2023-04-13T10:30:18.748Z,994.76
2023-04-13T10:31:18.789Z,994.80
2023-04-13T10:32:18.756Z,994.76
2023-04-13T10:33:18.745Z,994.73
2023-04-13T10:34:18.701Z,994.88
2023-04-13T10:35:18.688Z,994.75
2023-04-13T10:36:18.684Z,994.90
2023-04-13T10:37:18.680Z,994.96
2023-04-13T10:38:18.656Z,994.98
2023-04-13T10:39:18.668Z,994.95
2023-04-13T10:40:18.630Z,994.97
2023-04-13T10:41:18.631Z,995.11
2023-04-13T10:42:18.621Z,995.00
2023-04-13T10:43:18.592Z,995.05
2023-04-13T10:44:18.587Z,995.01
2023-04-13T10:45:18.587Z,995.05
2023-04-13T10:46:18.599Z,994.98
2023-04-13T10:47:18.600Z,994.99
2023-04-13T10:48:18.577Z,994.99
2023-04-13T10:49:18.528Z,995.06
2023-04-13T10:50:18.544Z,995.05
2023-04-13T10:51:19.081Z,995.01
2023-04-13T10:52:18.645Z,995.05
2023-04-13T10:53:18.488Z,995.02
2023-04-13T10:54:18.470Z,995.12
2023-04-13T10:55:18.472Z,995.15
2023-04-13T10:56:18.476Z,995.14
2023-04-13T10:57:18.437Z,995.09
2023-04-13T10:58:18.466Z,995.15
2023-04-13T10:59:18.414Z,995.28
2023-04-13T11:00:18.403Z,995.28
2023-04-13T11:01:18.412Z,995.28
2023-04-13T11:02:18.477Z,995.27
2023-04-13T11:03:18.496Z,995.32
2023-04-13T11:04:19.009Z,995.38
2023-04-13T11:05:18.380Z,995.30
2023-04-13T11:06:18.336Z,995.20
2023-04-13T11:07:18.327Z,995.21
2023-04-13T11:08:18.333Z,995.19
2023-04-13T11:09:18.331Z,995.20
2023-04-13T11:10:18.295Z,995.20
2023-04-13T11:11:18.281Z,995.10
2023-04-13T11:12:25.697Z,995.20
2023-04-13T11:13:18.259Z,995.05
2023-04-13T11:14:19.332Z,995.10
2023-04-13T11:15:18.239Z,995.09
2023-04-13T11:16:18.245Z,995.16
2023-04-13T11:17:18.444Z,995.20
2023-04-13T11:18:18.213Z,995.20
2023-04-13T11:19:18.226Z,995.21
2023-04-13T11:20:18.270Z,995.14
2023-04-13T11:21:18.173Z,995.14
2023-04-13T11:22:18.163Z,995.19
2023-04-13T11:23:18.143Z,995.12
2023-04-13T11:24:18.135Z,995.19
2023-04-13T11:25:18.144Z,995.29
2023-04-13T11:26:18.113Z,995.20
2023-04-13T11:27:18.107Z,995.21
2023-04-13T11:28:18.091Z,995.30
2023-04-13T11:29:18.076Z,995.34
2023-04-13T11:30:18.069Z,995.39
2023-04-13T11:31:18.060Z,995.29
2023-04-13T11:32:18.214Z,995.31
2023-04-13T11:33:18.029Z,995.46
2023-04-13T11:34:18.022Z,995.47
2023-04-13T11:35:18.024Z,995.56
2023-04-13T11:36:18.020Z,995.44
2023-04-13T11:37:17.984Z,995.61
2023-04-13T11:38:17.982Z,995.61
2023-04-13T11:39:17.960Z,995.53
2023-04-13T11:40:17.970Z,995.49
2023-04-13T11:41:17.947Z,995.63
2023-04-13T11:42:17.929Z,995.63
2023-04-13T11:43:17.921Z,995.63
2023-04-13T11:44:17.905Z,995.61
2023-04-13T11:45:20.470Z,995.61
2023-04-13T11:46:17.909Z,995.63
2023-04-13T11:47:17.967Z,995.61
2023-04-13T11:48:17.881Z,995.59
2023-04-13T11:49:17.872Z,995.59
2023-04-13T11:50:17.862Z,995.64
2023-04-13T11:51:17.820Z,995.56
2023-04-13T11:52:17.862Z,995.64
2023-04-13T11:53:17.815Z,995.67
2023-04-13T11:54:17.812Z,995.64
2023-04-13T11:55:23.228Z,995.67
2023-04-13T11:56:18.769Z,995.73
2023-04-13T11:57:17.779Z,995.80
2023-04-13T11:58:17.752Z,995.77
2023-04-13T11:59:17.737Z,995.75
2023-04-13T12:00:17.720Z,995.77
2023-04-13T12:01:25.128Z,995.85
2023-04-13T12:02:22.793Z,995.70
2023-04-13T12:04:17.835Z,995.81
2023-04-13T12:05:17.988Z,995.80
2023-04-13T12:06:17.924Z,995.80
2023-04-13T12:07:17.886Z,995.81
2023-04-13T12:08:18.524Z,995.89
2023-04-13T12:09:20.539Z,995.90
2023-04-13T12:10:23.133Z,996.02
2023-04-13T12:12:50.764Z,996.03
2023-04-13T12:13:31.065Z,995.97
2023-04-13T12:14:38.529Z,996.00
2023-04-13T12:15:36.309Z,996.03
2023-04-13T12:16:21.593Z,996.02
2023-04-13T12:17:38.099Z,996.08
2023-04-13T12:18:23.642Z,996.07
2023-04-13T12:19:19.528Z,996.05
2023-04-13T12:20:17.633Z,996.10
2023-04-13T12:21:17.659Z,996.21
2023-04-13T12:22:17.652Z,996.22
2023-04-13T12:23:22.873Z,996.21
2023-04-13T12:24:19.089Z,996.16
2023-04-13T12:25:17.727Z,996.16
2023-04-13T12:26:49.901Z,996.24
2023-04-13T12:27:19.360Z,996.17
2023-04-13T12:28:17.408Z,996.27
2023-04-13T12:29:17.394Z,996.31
2023-04-13T12:30:17.387Z,996.28
2023-04-13T12:31:17.401Z,996.33
2023-04-13T12:32:17.562Z,996.37
2023-04-13T12:33:17.358Z,996.40
2023-04-13T12:34:17.341Z,996.44
2023-04-13T12:35:17.331Z,996.42
2023-04-13T12:36:17.333Z,996.36